createdAt,value
2017-10-17T00:00:54.813Z,4.63
2017-10-17T00:03:22.895Z,4.77
2017-10-17T00:05:50.461Z,5.13
2017-10-17T00:08:18.249Z,5.00
2017-10-17T00:10:45.858Z,5.13
2017-10-17T00:13:14.559Z,5.60
2017-10-17T00:15:42.121Z,6.20
2017-10-17T00:18:09.733Z,6.50
2017-10-17T00:20:38.840Z,6.70
2017-10-17T00:23:06.500Z,6.97
2017-10-17T00:25:34.093Z,7.00
2017-10-17T00:28:02.425Z,7.07
2017-10-17T00:30:44.937Z,7.17
2017-10-17T00:33:14.388Z,5.97
2017-10-17T00:35:55.619Z,5.20
2017-10-17T00:38:23.261Z,5.73
2017-10-17T00:40:50.839Z,5.53
2017-10-17T00:43:18.490Z,6.00
2017-10-17T00:45:46.079Z,6.10
2017-10-17T00:48:15.250Z,5.67
2017-10-17T00:50:53.695Z,5.33
2017-10-17T00:53:21.445Z,5.57
2017-10-17T00:55:49.086Z,5.63
2017-10-17T00:58:24.425Z,6.40
2017-10-17T01:00:52.959Z,5.30
2017-10-17T01:03:20.718Z,5.60
2017-10-17T01:05:48.316Z,4.97
2017-10-17T01:08:15.905Z,5.50
2017-10-17T01:10:44.258Z,5.00
2017-10-17T01:13:11.921Z,5.80
2017-10-17T01:15:39.484Z,5.57
2017-10-17T01:18:08.549Z,6.20
2017-10-17T01:20:41.650Z,5.70
2017-10-17T01:26:08.794Z,5.77
2017-10-17T01:28:36.351Z,6.03
2017-10-17T01:31:04.013Z,5.83
2017-10-17T01:33:31.601Z,5.70
2017-10-17T01:35:59.210Z,5.90
2017-10-17T01:41:23.345Z,5.57
2017-10-17T01:43:53.061Z,5.00
2017-10-17T01:46:20.674Z,5.00
2017-10-17T01:48:50.679Z,5.20
2017-10-17T01:51:23.124Z,5.60
2017-10-17T01:53:53.340Z,4.37
2017-10-17T01:56:30.877Z,4.93
2017-10-17T01:59:01.007Z,4.97
2017-10-17T02:01:29.421Z,5.27
2017-10-17T02:03:57.043Z,5.47
2017-10-17T02:06:24.653Z,4.10
2017-10-17T02:08:53.329Z,5.93
2017-10-17T02:11:22.962Z,5.70
2017-10-17T02:13:51.976Z,6.17
2017-10-17T02:16:19.545Z,5.57
2017-10-17T02:18:50.905Z,4.60
2017-10-17T02:21:19.384Z,5.20
2017-10-17T02:23:46.969Z,4.70
2017-10-17T02:26:19.502Z,5.40
2017-10-17T02:31:48.766Z,5.40
2017-10-17T02:34:19.997Z,5.27
2017-10-17T02:36:47.558Z,4.60
2017-10-17T02:39:15.165Z,5.50
2017-10-17T02:41:42.742Z,5.20
2017-10-17T02:44:10.325Z,5.87
2017-10-17T02:46:39.710Z,5.67
2017-10-17T02:49:12.193Z,5.10
2017-10-17T02:51:39.788Z,5.93
2017-10-17T02:54:07.395Z,5.10
2017-10-17T02:56:34.958Z,4.73
2017-10-17T02:59:02.552Z,5.60
2017-10-17T03:01:45.043Z,5.10
2017-10-17T03:04:12.647Z,4.97
2017-10-17T03:06:40.204Z,5.80
2017-10-17T03:09:07.783Z,5.67
2017-10-17T03:11:36.868Z,6.40
2017-10-17T03:14:09.143Z,5.40
2017-10-17T03:16:36.755Z,5.67
2017-10-17T03:19:04.421Z,5.67
2017-10-17T03:21:36.690Z,5.90
2017-10-17T03:24:17.889Z,6.17
2017-10-17T03:26:45.517Z,6.10
2017-10-17T03:29:13.877Z,6.57
2017-10-17T03:31:42.230Z,6.23
2017-10-17T03:34:28.421Z,5.90
2017-10-17T03:37:00.508Z,5.57
2017-10-17T03:39:28.236Z,6.80
2017-10-17T03:41:58.878Z,5.60
2017-10-17T03:47:52.561Z,6.57
2017-10-17T03:50:26.021Z,5.60
2017-10-17T03:52:53.628Z,5.73
2017-10-17T03:55:21.269Z,5.70
2017-10-17T03:57:48.895Z,6.60
2017-10-17T04:00:18.079Z,6.00
2017-10-17T04:05:42.212Z,5.83
2017-10-17T04:08:26.360Z,6.50
2017-10-17T04:11:02.572Z,5.60
2017-10-17T04:13:38.923Z,6.80
2017-10-17T04:19:39.606Z,6.73
2017-10-17T04:22:12.119Z,7.60
2017-10-17T04:24:42.618Z,6.47
2017-10-17T04:27:25.870Z,6.13
2017-10-17T04:30:05.054Z,6.10
2017-10-17T04:32:36.965Z,7.17
2017-10-17T04:35:21.643Z,7.00
2017-10-17T04:37:49.989Z,6.67
2017-10-17T04:40:28.465Z,5.57
2017-10-17T04:43:07.753Z,6.03
2017-10-17T04:45:45.299Z,6.50
2017-10-17T04:51:39.032Z,7.20
2017-10-17T04:54:17.169Z,7.97
2017-10-17T04:59:56.121Z,6.60
2017-10-17T05:05:40.676Z,7.33
2017-10-17T05:08:17.223Z,7.37
2017-10-17T05:10:46.699Z,7.20
2017-10-17T05:13:18.951Z,7.00
2017-10-17T05:15:51.217Z,6.50
2017-10-17T05:18:28.209Z,7.80
2017-10-17T05:20:56.735Z,7.27
2017-10-17T05:26:24.840Z,6.10
2017-10-17T05:28:52.443Z,6.83
2017-10-17T05:31:20.791Z,8.00
2017-10-17T05:37:13.779Z,6.73
2017-10-17T05:39:41.362Z,6.20
2017-10-17T05:42:08.937Z,5.67
2017-10-17T05:44:46.407Z,6.63
2017-10-17T05:50:09.523Z,6.70
2017-10-17T05:52:55.566Z,6.60
2017-10-17T05:55:23.181Z,6.30
2017-10-17T05:57:52.386Z,5.97
2017-10-17T06:00:20.744Z,6.60
2017-10-17T06:02:48.370Z,6.53
2017-10-17T06:05:15.936Z,5.50
2017-10-17T06:07:43.529Z,6.60
2017-10-17T06:10:11.107Z,5.77
2017-10-17T06:12:38.699Z,5.67
2017-10-17T06:15:07.055Z,7.07
2017-10-17T06:17:34.636Z,6.90
2017-10-17T06:20:03.033Z,7.60
2017-10-17T06:22:31.410Z,8.13
2017-10-17T06:24:59.790Z,6.57
2017-10-17T06:27:28.199Z,6.00
2017-10-17T06:29:56.209Z,7.20
2017-10-17T06:32:23.805Z,6.20
2017-10-17T06:34:51.437Z,7.20
2017-10-17T06:37:19.039Z,6.47
2017-10-17T06:39:47.386Z,6.40
2017-10-17T06:42:14.972Z,5.40
2017-10-17T06:44:42.595Z,6.17
2017-10-17T06:47:10.172Z,5.20
2017-10-17T06:49:38.316Z,5.97
2017-10-17T06:52:05.904Z,5.50
2017-10-17T06:54:33.504Z,6.77
2017-10-17T06:57:01.118Z,5.93
2017-10-17T06:59:28.879Z,6.43
2017-10-17T07:01:56.465Z,6.30
2017-10-17T07:04:24.086Z,5.47
2017-10-17T07:06:52.449Z,4.93
2017-10-17T07:09:20.027Z,4.53
2017-10-17T07:11:48.387Z,5.00
2017-10-17T07:14:16.273Z,5.60
2017-10-17T07:16:44.040Z,4.70
2017-10-17T07:19:11.663Z,6.20
2017-10-17T07:21:39.739Z,4.70
2017-10-17T07:24:07.335Z,4.60
2017-10-17T07:29:14.445Z,5.60
2017-10-17T07:31:42.169Z,4.40
2017-10-17T07:34:09.735Z,4.90
2017-10-17T07:36:37.440Z,6.13
2017-10-17T07:39:05.057Z,5.67
2017-10-17T07:41:32.678Z,5.23
2017-10-17T07:44:00.279Z,6.30
2017-10-17T07:46:27.849Z,5.50
2017-10-17T07:48:55.443Z,5.63
2017-10-17T07:51:23.043Z,5.30
2017-10-17T07:53:51.405Z,6.77
2017-10-17T07:56:18.989Z,7.50
2017-10-17T07:58:47.341Z,6.53
2017-10-17T08:01:15.215Z,8.30
2017-10-17T08:03:42.857Z,8.97
2017-10-17T08:06:10.486Z,8.20
2017-10-17T08:08:38.863Z,8.20
2017-10-17T08:11:07.495Z,7.77
2017-10-17T08:13:35.073Z,8.80
2017-10-17T08:16:05.230Z,6.63
2017-10-17T08:18:33.598Z,7.27
2017-10-17T08:21:01.213Z,7.33
2017-10-17T08:23:28.791Z,6.80
2017-10-17T08:25:56.367Z,6.93
2017-10-17T08:28:24.013Z,6.57
2017-10-17T08:30:51.592Z,7.20
2017-10-17T08:33:19.180Z,6.40
2017-10-17T08:35:46.755Z,7.60
2017-10-17T08:38:14.468Z,6.70
2017-10-17T08:40:42.058Z,5.90
2017-10-17T08:43:09.621Z,7.40
2017-10-17T08:45:44.768Z,8.20
2017-10-17T08:48:12.343Z,7.10
2017-10-17T08:50:39.993Z,7.20
2017-10-17T08:53:07.647Z,8.37
2017-10-17T08:55:35.223Z,6.00
2017-10-17T08:58:02.821Z,8.07
2017-10-17T09:00:31.164Z,7.97
2017-10-17T09:02:58.749Z,7.50
2017-10-17T09:05:26.319Z,8.00
2017-10-17T09:07:54.858Z,7.13
2017-10-17T09:10:22.459Z,7.80
2017-10-17T09:12:50.034Z,7.40
2017-10-17T09:15:17.644Z,7.57
2017-10-17T09:17:45.224Z,7.23
2017-10-17T09:20:12.907Z,7.80
2017-10-17T09:22:40.509Z,7.77
2017-10-17T09:25:09.151Z,6.67
2017-10-17T09:27:37.107Z,7.10
2017-10-17T09:30:04.918Z,7.00
2017-10-17T09:32:32.782Z,7.30
2017-10-17T09:35:00.823Z,7.03
2017-10-17T09:37:28.452Z,5.57
2017-10-17T09:39:56.772Z,6.30
2017-10-17T09:42:24.375Z,5.83
2017-10-17T09:44:52.729Z,7.80
2017-10-17T09:47:20.281Z,5.47
2017-10-17T09:49:47.868Z,5.97
2017-10-17T09:52:15.443Z,6.40
2017-10-17T09:54:43.036Z,5.30
2017-10-17T09:57:10.792Z,5.57
2017-10-17T09:59:39.157Z,6.20
2017-10-17T10:02:07.002Z,6.70
2017-10-17T10:04:34.591Z,7.67
2017-10-17T10:07:02.187Z,8.27
2017-10-17T10:09:30.528Z,7.10
2017-10-17T10:11:58.139Z,7.47
2017-10-17T10:14:26.509Z,9.30
2017-10-17T10:16:54.864Z,7.70
2017-10-17T10:19:22.469Z,7.20
2017-10-17T10:21:50.044Z,6.40
2017-10-17T10:24:17.658Z,6.67
2017-10-17T10:26:45.246Z,7.53
2017-10-17T10:29:13.616Z,8.03
2017-10-17T10:31:41.236Z,7.37
2017-10-17T10:34:08.830Z,8.43
2017-10-17T10:36:36.463Z,7.07
2017-10-17T10:39:04.335Z,8.00
2017-10-17T10:41:31.936Z,7.53
2017-10-17T10:43:59.519Z,8.60
2017-10-17T10:46:27.862Z,8.00
2017-10-17T10:48:55.465Z,8.47
2017-10-17T10:51:23.827Z,8.47
2017-10-17T10:53:51.436Z,9.07
2017-10-17T10:56:19.015Z,9.17
2017-10-17T10:58:46.620Z,11.23
2017-10-17T11:01:14.250Z,8.50
2017-10-17T11:03:41.886Z,9.10
2017-10-17T11:06:10.714Z,8.57
2017-10-17T11:08:38.303Z,9.87
2017-10-17T11:11:05.962Z,8.60
2017-10-17T11:13:33.543Z,8.47
2017-10-17T11:16:01.163Z,9.97
2017-10-17T11:18:28.748Z,9.17
2017-10-17T11:20:56.355Z,8.40
2017-10-17T11:23:24.811Z,9.20
2017-10-17T11:25:52.400Z,10.87
2017-10-17T11:28:20.810Z,9.00
2017-10-17T11:30:48.437Z,9.37
2017-10-17T11:33:16.031Z,8.30
2017-10-17T11:35:44.367Z,7.90
2017-10-17T11:38:11.969Z,8.77
2017-10-17T11:40:52.388Z,8.67
2017-10-17T11:43:31.922Z,8.10
2017-10-17T11:45:59.507Z,9.37
2017-10-17T11:48:27.175Z,9.20
2017-10-17T11:50:54.820Z,8.50
2017-10-17T11:53:22.423Z,9.97
2017-10-17T11:55:50.810Z,9.90
2017-10-17T11:58:19.151Z,8.60
2017-10-17T12:00:46.752Z,9.60
2017-10-17T12:03:15.096Z,9.80
2017-10-17T12:05:42.679Z,10.00
2017-10-17T12:08:11.021Z,9.67
2017-10-17T12:10:38.611Z,9.10
2017-10-17T12:13:06.262Z,9.10
2017-10-17T12:15:36.809Z,9.27
2017-10-17T12:18:04.418Z,9.93
2017-10-17T12:20:32.009Z,8.83
2017-10-17T12:22:59.675Z,8.60
2017-10-17T12:25:27.545Z,8.80
2017-10-17T12:27:55.151Z,10.63
2017-10-17T12:30:22.734Z,11.00
2017-10-17T12:32:50.372Z,10.93
2017-10-17T12:35:17.961Z,10.37
2017-10-17T12:37:46.327Z,9.63
2017-10-17T12:40:13.921Z,8.87
2017-10-17T12:42:42.270Z,10.20
2017-10-17T12:45:09.894Z,12.70
2017-10-17T12:47:37.494Z,10.80
2017-10-17T12:50:05.064Z,11.40
2017-10-17T12:52:32.832Z,12.03
2017-10-17T12:55:00.401Z,13.33
2017-10-17T12:57:28.820Z,13.47
2017-10-17T12:59:57.422Z,12.67
2017-10-17T13:02:25.030Z,12.90
2017-10-17T13:04:52.629Z,12.00
2017-10-17T13:07:20.206Z,12.93
2017-10-17T13:09:47.807Z,13.97
2017-10-17T13:12:15.387Z,13.73
2017-10-17T13:14:43.022Z,13.30
2017-10-17T13:17:10.581Z,13.60
2017-10-17T13:19:38.203Z,14.20
2017-10-17T13:22:06.562Z,12.07
2017-10-17T13:24:34.195Z,13.87
2017-10-17T13:27:01.776Z,13.87
2017-10-17T13:29:29.407Z,14.37
2017-10-17T13:31:57.157Z,14.57
2017-10-17T13:34:25.494Z,14.87
2017-10-17T13:36:53.092Z,12.97
2017-10-17T13:39:21.482Z,15.23
2017-10-17T13:41:49.821Z,14.53
2017-10-17T13:44:17.465Z,12.80
2017-10-17T13:46:45.049Z,13.67
2017-10-17T13:49:12.697Z,13.30
2017-10-17T13:51:40.299Z,13.13
2017-10-17T13:54:08.655Z,12.10
2017-10-17T13:56:36.283Z,13.30
2017-10-17T13:59:03.859Z,13.10
2017-10-17T14:01:31.537Z,12.03
2017-10-17T14:03:59.124Z,12.47
2017-10-17T14:06:26.786Z,13.03
2017-10-17T14:08:54.380Z,12.30
2017-10-17T14:11:22.891Z,11.97
2017-10-17T14:13:50.553Z,11.40
2017-10-17T14:16:18.160Z,13.13
2017-10-17T14:18:45.779Z,12.13
2017-10-17T14:21:14.299Z,10.90
2017-10-17T14:23:41.905Z,11.57
2017-10-17T14:26:09.631Z,10.30
2017-10-17T14:28:37.234Z,10.10
2017-10-17T14:31:04.815Z,11.70
2017-10-17T14:33:33.219Z,9.07
2017-10-17T14:36:00.777Z,11.47
2017-10-17T14:38:28.378Z,8.37
2017-10-17T14:40:55.954Z,12.50
2017-10-17T14:43:23.517Z,10.60
2017-10-17T14:45:51.160Z,12.07
2017-10-17T14:48:18.964Z,9.93
2017-10-17T14:50:46.567Z,9.87
2017-10-17T14:53:14.180Z,9.67
2017-10-17T14:55:41.804Z,8.97
2017-10-17T14:58:09.419Z,9.77
2017-10-17T15:00:36.990Z,8.87
2017-10-17T15:03:04.606Z,10.13
2017-10-17T15:05:32.194Z,9.10
2017-10-17T15:07:59.821Z,8.77
2017-10-17T15:10:28.150Z,9.63
2017-10-17T15:12:55.795Z,8.40
2017-10-17T15:15:23.422Z,8.80
2017-10-17T15:17:51.782Z,7.30
2017-10-17T15:20:19.374Z,8.53
2017-10-17T15:22:47.753Z,8.43
2017-10-17T15:25:16.091Z,8.57
2017-10-17T15:27:43.729Z,8.30
2017-10-17T15:30:11.349Z,7.33
2017-10-17T15:32:38.959Z,8.80
2017-10-17T15:35:06.572Z,8.87
2017-10-17T15:37:34.145Z,8.60
2017-10-17T15:40:01.760Z,9.47
2017-10-17T15:42:29.319Z,8.33
2017-10-17T15:44:56.885Z,10.60
2017-10-17T15:47:24.479Z,8.60
2017-10-17T15:49:52.301Z,7.57
2017-10-17T15:52:20.600Z,9.10
2017-10-17T15:54:49.092Z,8.23
2017-10-17T15:57:17.207Z,9.30
2017-10-17T15:59:45.365Z,10.00
2017-10-17T16:02:13.519Z,9.00
2017-10-17T16:04:43.010Z,9.20
2017-10-17T16:07:10.910Z,9.00
2017-10-17T16:09:38.873Z,8.30
2017-10-17T16:12:06.844Z,9.90
2017-10-17T16:14:36.099Z,8.00
2017-10-17T16:17:04.731Z,8.63
2017-10-17T16:19:32.523Z,9.17
2017-10-17T16:22:00.374Z,9.67
2017-10-17T16:24:27.991Z,9.50
2017-10-17T16:26:56.116Z,9.77
2017-10-17T16:29:24.090Z,8.87
2017-10-17T16:31:52.608Z,10.20
2017-10-17T16:34:21.467Z,8.57
2017-10-17T16:36:49.649Z,11.27
2017-10-17T16:39:17.617Z,10.10
2017-10-17T16:41:45.918Z,10.03
2017-10-17T16:44:14.100Z,10.90
2017-10-17T16:46:42.381Z,10.03
2017-10-17T16:49:11.045Z,11.03
2017-10-17T16:51:38.680Z,10.60
2017-10-17T16:54:07.024Z,8.70
2017-10-17T16:56:35.440Z,9.70
2017-10-17T16:59:03.790Z,8.77
2017-10-17T17:01:32.145Z,8.33
2017-10-17T17:03:59.723Z,8.93
2017-10-17T17:06:27.358Z,9.40
2017-10-17T17:08:54.947Z,8.40
2017-10-17T17:11:22.576Z,8.73
2017-10-17T17:13:51.699Z,7.87
2017-10-17T17:16:19.331Z,8.03
2017-10-17T17:18:47.718Z,8.50
2017-10-17T17:21:15.953Z,9.87
2017-10-17T17:23:43.991Z,8.17
2017-10-17T17:26:12.630Z,8.60
2017-10-17T17:28:40.203Z,8.80
2017-10-17T17:31:08.569Z,8.53
2017-10-17T17:33:36.970Z,8.73
2017-10-17T17:36:05.906Z,8.87
2017-10-17T17:38:33.534Z,8.70
2017-10-17T17:41:01.881Z,8.37
2017-10-17T17:43:29.459Z,7.03
2017-10-17T17:45:57.051Z,8.53
2017-10-17T17:48:25.419Z,8.77
2017-10-17T17:50:53.881Z,9.00
2017-10-17T17:53:21.868Z,8.93
2017-10-17T17:55:50.345Z,10.20
2017-10-17T17:58:18.273Z,7.30
2017-10-17T18:00:45.948Z,8.70
2017-10-17T18:03:13.565Z,8.63
2017-10-17T18:08:45.285Z,8.23
2017-10-17T18:11:12.881Z,9.87
2017-10-17T18:13:40.515Z,7.07
2017-10-17T18:16:08.095Z,7.87
2017-10-17T18:18:35.673Z,8.17
2017-10-17T18:21:03.256Z,7.13
2017-10-17T18:23:31.627Z,8.77
2017-10-17T18:25:59.199Z,9.20
2017-10-17T18:28:27.526Z,9.20
2017-10-17T18:30:55.101Z,8.27
2017-10-17T18:33:22.681Z,8.17
2017-10-17T18:35:50.292Z,8.50
2017-10-17T18:38:17.856Z,8.30
2017-10-17T18:40:46.192Z,7.27
2017-10-17T18:43:13.794Z,8.93
2017-10-17T18:45:42.235Z,8.47
2017-10-17T18:48:09.843Z,8.43
2017-10-17T18:53:41.176Z,9.10
2017-10-17T18:56:09.533Z,8.33
2017-10-17T18:58:38.624Z,10.10
2017-10-17T19:01:06.237Z,8.50
2017-10-17T19:03:33.841Z,9.53
2017-10-17T19:06:01.461Z,8.30
2017-10-17T19:08:29.037Z,7.73
2017-10-17T19:10:56.622Z,8.90
2017-10-17T19:13:24.223Z,8.90
2017-10-17T19:15:51.789Z,8.67
2017-10-17T19:18:19.400Z,8.10
2017-10-17T19:20:47.007Z,7.53
2017-10-17T19:23:15.365Z,8.20
2017-10-17T19:25:43.780Z,9.13
2017-10-17T19:28:11.363Z,9.73
2017-10-17T19:30:39.013Z,10.23
2017-10-17T19:33:06.667Z,10.13
2017-10-17T19:35:34.343Z,9.83
2017-10-17T19:38:01.931Z,9.50
2017-10-17T19:40:29.522Z,9.20
2017-10-17T19:42:57.139Z,8.50
2017-10-17T19:45:24.710Z,8.80
2017-10-17T19:47:52.301Z,8.50
2017-10-17T19:50:19.892Z,9.23
2017-10-17T19:52:48.232Z,6.70
2017-10-17T19:55:15.859Z,7.43
2017-10-17T19:57:43.438Z,7.57
2017-10-17T20:00:11.010Z,8.67
2017-10-17T20:02:38.612Z,6.97
2017-10-17T20:05:06.234Z,8.27
2017-10-17T20:07:33.844Z,8.50
2017-10-17T20:10:01.423Z,7.40
2017-10-17T20:12:29.782Z,7.63
2017-10-17T20:14:58.885Z,8.30
2017-10-17T20:17:26.461Z,7.20
2017-10-17T20:19:54.841Z,7.90
2017-10-17T20:22:22.434Z,7.27
2017-10-17T20:24:50.027Z,6.90
2017-10-17T20:27:17.604Z,6.87
2017-10-17T20:29:45.177Z,6.73
2017-10-17T20:32:12.813Z,8.90
2017-10-17T20:34:40.403Z,7.10
2017-10-17T20:37:07.972Z,8.00
2017-10-17T20:39:35.568Z,8.50
2017-10-17T20:42:03.923Z,6.60
2017-10-17T20:44:31.529Z,6.73
2017-10-17T20:46:59.205Z,7.37
2017-10-17T20:49:26.781Z,7.67
2017-10-17T20:51:54.406Z,7.50
2017-10-17T20:54:22.751Z,6.60
2017-10-17T20:56:50.361Z,6.30
2017-10-17T20:59:18.717Z,5.60
2017-10-17T21:01:46.306Z,6.87
2017-10-17T21:04:14.686Z,6.80
2017-10-17T21:06:43.027Z,5.43
2017-10-17T21:09:10.691Z,7.07
2017-10-17T21:11:38.268Z,7.53
2017-10-17T21:14:06.613Z,9.70
2017-10-17T21:16:34.226Z,7.13
2017-10-17T21:19:01.813Z,6.63
2017-10-17T21:21:29.427Z,5.70
2017-10-17T21:23:57.001Z,6.43
2017-10-17T21:26:24.563Z,6.10
2017-10-17T21:28:52.173Z,7.50
2017-10-17T21:31:19.867Z,5.07
2017-10-17T21:33:47.497Z,7.50
2017-10-17T21:36:15.835Z,6.30
2017-10-17T21:38:43.421Z,6.90
2017-10-17T21:41:11.048Z,5.03
2017-10-17T21:43:38.620Z,7.13
2017-10-17T21:46:06.237Z,6.00
2017-10-17T21:48:34.569Z,6.00
2017-10-17T21:51:02.147Z,6.83
2017-10-17T21:53:29.755Z,6.37
2017-10-17T21:55:58.099Z,6.87
2017-10-17T21:58:25.709Z,7.17
2017-10-17T22:01:02.333Z,5.10
2017-10-17T22:03:29.925Z,5.87
2017-10-17T22:05:58.270Z,6.57
2017-10-17T22:08:25.837Z,6.37
2017-10-17T22:10:53.470Z,6.87
2017-10-17T22:13:21.060Z,5.50
2017-10-17T22:15:48.657Z,6.20
2017-10-17T22:18:17.054Z,7.07
2017-10-17T22:20:44.637Z,6.40
2017-10-17T22:23:12.279Z,5.40
2017-10-17T22:25:40.619Z,5.77
2017-10-17T22:28:08.226Z,5.83
2017-10-17T22:30:36.557Z,6.13
2017-10-17T22:33:04.155Z,6.90
2017-10-17T22:35:31.716Z,6.30
2017-10-17T22:38:00.837Z,6.33
2017-10-17T22:40:29.205Z,5.10
2017-10-17T22:42:58.387Z,6.10
2017-10-17T22:45:26.090Z,4.67
2017-10-17T22:47:53.688Z,5.73
2017-10-17T22:50:21.268Z,5.90
2017-10-17T22:52:48.913Z,5.50
2017-10-17T22:55:16.579Z,5.43
2017-10-17T22:57:44.162Z,6.27
2017-10-17T23:00:11.756Z,7.10
2017-10-17T23:02:40.085Z,5.37
2017-10-17T23:05:07.689Z,6.77
2017-10-17T23:07:35.316Z,5.37
2017-10-17T23:10:02.889Z,6.80
2017-10-17T23:12:30.483Z,5.57
2017-10-17T23:14:58.227Z,7.17
2017-10-17T23:17:37.661Z,6.23
2017-10-17T23:20:17.072Z,6.17
2017-10-17T23:22:44.765Z,5.80
2017-10-17T23:25:12.348Z,5.33
2017-10-17T23:27:40.589Z,5.70
2017-10-17T23:30:08.197Z,5.10
2017-10-17T23:32:35.775Z,5.83
2017-10-17T23:35:04.143Z,5.90
2017-10-17T23:37:31.742Z,6.40
2017-10-17T23:39:59.388Z,5.27
2017-10-17T23:42:26.964Z,5.00
2017-10-17T23:44:55.315Z,4.90
2017-10-17T23:47:22.915Z,6.83
2017-10-17T23:49:51.257Z,5.17
2017-10-17T23:52:18.899Z,6.17
2017-10-17T23:54:46.487Z,4.30
2017-10-17T23:57:14.092Z,6.13
2017-10-17T23:59:41.745Z,5.03
